Terminal Aerodrome Forecast
Issued by NWS Jackson, MS

Home | Current Version | Previous Version | Text Only | Print | Product List | Glossary On
Versions: 1 2 3 4 5 6 7 8 9 10 11 12 13 14 15 16 17 18 19 20 21 22
000
FTUS44 KJAN 181720
TAFJAN
TAF
KJAN 181720Z 1818/1918 12006KT P6SM OVC006
     FM190400 15008KT 4SM SHRA BR OVC003
     FM191200 16009KT 2SM SHRA BR OVC003=

USA.gov is the U.S. government's official web portal to all federal, state and local government web resources and services.